Time;durP1;ratioP1;P1;durP2;ratioP2;P2;SDS_P1;SDS_P2;PMS_P1;PMS_P2;Temp;Humidity;BMP_temperature;BMP_pressure;BME280_temperature;BME280_humidity;BME280_pressure;Samples;Min_cycle;Max_cycle;Signal;HPM_P1;HPM_P2
2022/07/12 00:01:51;;;;;;;1.75;1.10;;;16.00;99.90;;;;;;5014967;28;20433;-75
2022/07/12 00:04:17;;;;;;;1.42;0.90;;;16.10;99.90;;;;;;4982655;28;20041;-75
2022/07/12 00:06:43;;;;;;;3.55;1.65;;;16.10;99.90;;;;;;5014838;28;20096;-75
2022/07/12 00:09:09;;;;;;;2.75;1.38;;;16.00;99.90;;;;;;5015080;28;20033;-75
2022/07/12 00:11:36;;;;;;;1.88;1.10;;;16.00;99.90;;;;;;4982267;28;20128;-75
2022/07/12 00:14:02;;;;;;;3.85;1.58;;;16.40;99.90;;;;;;4998213;28;20115;-75
2022/07/12 00:16:28;;;;;;;1.88;1.20;;;16.60;99.90;;;;;;4998725;28;20050;-75
2022/07/12 00:18:54;;;;;;;1.45;1.00;;;15.90;99.90;;;;;;4982528;28;20056;-75
2022/07/12 00:21:20;;;;;;;2.80;1.13;;;15.80;99.90;;;;;;5014815;28;20037;-75
2022/07/12 00:23:45;;;;;;;1.50;1.10;;;16.00;99.90;;;;;;4998336;28;20386;-75
2022/07/12 00:26:11;;;;;;;1.48;1.05;;;15.90;99.90;;;;;;4982381;28;20033;-75
2022/07/12 00:28:37;;;;;;;3.25;1.23;;;15.70;99.90;;;;;;5001101;28;20037;-75
2022/07/12 00:31:03;;;;;;;1.63;1.00;;;15.70;99.90;;;;;;5001941;28;20045;-75
2022/07/12 00:33:29;;;;;;;1.83;1.05;;;15.60;99.90;;;;;;5002249;28;20045;-75
2022/07/12 00:35:55;;;;;;;1.38;1.00;;;15.70;99.90;;;;;;5018156;28;20042;-75
2022/07/12 00:38:21;;;;;;;2.10;1.17;;;15.60;99.90;;;;;;5018097;28;20382;-75
2022/07/12 00:40:46;;;;;;;3.13;1.40;;;15.50;99.90;;;;;;5001775;28;20136;-75
2022/07/12 00:43:12;;;;;;;3.40;1.45;;;15.20;99.90;;;;;;5001726;28;20048;-74
2022/07/12 00:45:38;;;;;;;2.22;1.05;;;15.50;99.90;;;;;;4985724;28;20034;-75
2022/07/12 00:48:04;;;;;;;2.10;1.42;;;15.50;99.90;;;;;;5001849;28;20037;-75
2022/07/12 00:50:30;;;;;;;2.78;1.42;;;15.50;99.90;;;;;;5018158;28;20043;-75
2022/07/12 00:52:56;;;;;;;1.48;1.10;;;15.50;99.90;;;;;;5017830;28;20107;-74
2022/07/12 00:55:23;;;;;;;3.95;1.13;;;15.50;99.90;;;;;;5017784;28;20045;-75
2022/07/12 00:57:51;;;;;;;1.83;1.00;;;15.80;99.90;;;;;;5001407;28;20041;-75
2022/07/12 01:00:28;;;;;;;1.90;1.25;;;15.50;99.90;;;;;;5017920;28;20489;-75
2022/07/12 01:02:57;;;;;;;2.90;1.20;;;15.60;99.90;;;;;;5017683;28;20083;-75
2022/07/12 01:05:23;;;;;;;4.03;1.60;;;15.50;99.90;;;;;;5018328;28;20565;-75
2022/07/12 01:07:50;;;;;;;1.70;1.30;;;15.50;99.90;;;;;;5001228;28;20030;-75
2022/07/12 01:10:16;;;;;;;3.10;1.60;;;15.50;99.90;;;;;;5017459;28;20042;-75
2022/07/12 01:12:42;;;;;;;2.35;1.30;;;15.70;99.90;;;;;;5014023;28;20141;-75
2022/07/12 01:15:09;;;;;;;1.33;1.02;;;15.30;99.90;;;;;;5014357;28;20557;-75
2022/07/12 01:17:36;;;;;;;2.13;1.13;;;15.40;99.90;;;;;;5014129;28;20068;-75
2022/07/12 01:20:04;;;;;;;1.75;1.00;;;15.30;99.90;;;;;;5014073;28;20101;-75
2022/07/12 01:22:40;;;;;;;2.22;1.23;;;15.30;99.90;;;;;;4997620;28;20413;-75
2022/07/12 01:25:07;;;;;;;2.55;1.48;;;15.20;99.90;;;;;;5014180;28;20091;-75
2022/07/12 01:27:33;;;;;;;3.28;1.40;;;15.10;99.90;;;;;;5014227;28;20041;-75
2022/07/12 01:30:03;;;;;;;3.25;1.98;;;15.00;99.90;;;;;;5013916;28;20411;-75
2022/07/12 01:32:30;;;;;;;3.05;1.50;;;14.90;99.90;;;;;;5014169;28;20050;-75
2022/07/12 01:35:05;;;;;;;3.65;1.73;;;14.90;99.90;;;;;;5013903;28;20046;-74
2022/07/12 01:37:34;;;;;;;1.88;1.00;;;14.90;99.90;;;;;;4997431;28;20045;-75
2022/07/12 01:40:01;;;;;;;2.38;1.52;;;14.80;99.90;;;;;;4997383;28;20512;-75
2022/07/12 01:42:28;;;;;;;2.22;1.38;;;14.80;99.90;;;;;;4997314;28;20050;-75
2022/07/12 01:44:55;;;;;;;2.50;1.40;;;15.30;99.90;;;;;;5013620;28;20046;-75
2022/07/12 01:47:22;;;;;;;3.08;1.70;;;14.70;99.90;;;;;;5013858;28;20038;-74
2022/07/12 01:49:48;;;;;;;3.22;1.75;;;14.70;99.90;;;;;;4997514;28;20157;-74
2022/07/12 01:52:14;;;;;;;2.08;1.40;;;14.70;99.90;;;;;;5013458;28;20110;-74
2022/07/12 01:54:40;;;;;;;2.88;1.60;;;14.70;99.90;;;;;;4997161;28;20488;-74
2022/07/12 01:57:06;;;;;;;1.83;1.30;;;14.70;99.90;;;;;;4997092;28;20129;-74
2022/07/12 01:59:33;;;;;;;4.22;2.08;;;14.70;99.90;;;;;;5013348;28;20429;-74
2022/07/12 02:01:59;;;;;;;3.33;1.75;;;14.70;99.90;;;;;;5013229;28;20045;-74
2022/07/12 02:04:25;;;;;;;2.92;1.70;;;14.70;99.90;;;;;;5013547;28;20482;-75
2022/07/12 02:06:50;;;;;;;3.28;1.52;;;14.70;99.90;;;;;;5013215;28;20125;-75
2022/07/12 02:09:17;;;;;;;1.88;1.10;;;14.70;99.90;;;;;;5013442;28;20541;-75
2022/07/12 02:11:44;;;;;;;3.30;1.50;;;14.70;99.90;;;;;;5013088;28;20083;-75
2022/07/12 02:14:12;;;;;;;4.40;1.67;;;14.70;99.90;;;;;;5012961;28;20099;-75
2022/07/12 02:16:38;;;;;;;2.83;1.70;;;14.70;99.90;;;;;;5013066;28;20113;-75
2022/07/12 02:19:04;;;;;;;3.78;1.48;;;14.70;99.90;;;;;;5013190;28;20180;-74
2022/07/12 02:21:30;;;;;;;3.03;1.55;;;14.70;99.90;;;;;;4996817;28;20486;-74
2022/07/12 02:23:56;;;;;;;1.88;1.33;;;14.70;99.90;;;;;;5013094;28;20046;-74
2022/07/12 02:26:21;;;;;;;3.08;1.40;;;14.60;99.90;;;;;;5012832;28;20050;-74
2022/07/12 02:28:47;;;;;;;2.10;1.10;;;14.60;99.90;;;;;;5012808;28;20428;-75
2022/07/12 02:31:13;;;;;;;2.53;1.50;;;14.50;99.90;;;;;;5012754;28;20488;-75
2022/07/12 02:33:39;;;;;;;2.33;1.50;;;14.40;99.90;;;;;;4996719;28;20042;-75
2022/07/12 02:36:05;;;;;;;1.58;1.10;;;14.50;99.90;;;;;;5012673;28;20042;-74
2022/07/12 02:38:30;;;;;;;2.45;1.48;;;14.40;99.90;;;;;;5012658;28;20101;-75
2022/07/12 02:40:56;;;;;;;2.35;1.55;;;14.30;99.90;;;;;;5012514;28;20046;-74
2022/07/12 02:43:30;;;;;;;3.70;1.90;;;14.30;99.90;;;;;;5012526;28;20556;-75
2022/07/12 02:46:11;;;;;;;4.47;1.77;;;14.20;99.90;;;;;;5012515;28;20042;-74
2022/07/12 02:48:38;;;;;;;2.97;1.67;;;14.20;99.90;;;;;;5012454;28;20129;-74
2022/07/12 02:51:05;;;;;;;2.00;1.27;;;14.20;99.90;;;;;;5011576;28;20046;-74
2022/07/12 02:53:32;;;;;;;2.47;1.20;;;14.10;99.90;;;;;;5012349;28;20045;-74
2022/07/12 02:55:59;;;;;;;3.30;1.50;;;14.10;99.90;;;;;;5012310;28;20081;-74
2022/07/12 02:58:24;;;;;;;2.55;1.27;;;14.10;99.90;;;;;;4996234;28;20061;-74
2022/07/12 03:00:50;;;;;;;3.00;1.30;;;14.10;99.90;;;;;;5012179;28;20050;-74
2022/07/12 03:03:16;;;;;;;1.75;0.93;;;14.00;99.90;;;;;;5012449;28;20042;-75
2022/07/12 03:05:42;;;;;;;2.30;0.98;;;13.90;99.90;;;;;;4995876;28;20073;-75
2022/07/12 03:08:09;;;;;;;1.63;1.15;;;13.90;99.90;;;;;;5012117;28;20038;-75
2022/07/12 03:10:35;;;;;;;2.30;1.33;;;13.90;99.90;;;;;;4995825;28;20398;-74
2022/07/12 03:13:01;;;;;;;2.85;1.30;;;13.90;99.90;;;;;;4995786;28;20145;-75
2022/07/12 03:15:28;;;;;;;1.60;1.00;;;13.80;99.90;;;;;;5012362;28;20409;-74
2022/07/12 03:17:54;;;;;;;1.73;1.23;;;13.70;99.90;;;;;;5012459;28;20576;-74
2022/07/12 03:20:20;;;;;;;2.20;1.25;;;13.80;99.90;;;;;;5012076;28;20048;-75
2022/07/12 03:22:48;;;;;;;1.20;0.82;;;13.70;99.90;;;;;;5011967;28;20125;-75
2022/07/12 03:25:14;;;;;;;1.52;1.17;;;13.70;99.90;;;;;;5011935;28;20077;-74
2022/07/12 03:27:40;;;;;;;2.38;0.93;;;13.60;99.90;;;;;;5012233;28;20393;-75
2022/07/12 03:30:08;;;;;;;1.20;0.98;;;13.60;99.90;;;;;;4995545;28;20038;-75
2022/07/12 03:32:34;;;;;;;1.65;0.93;;;13.50;99.90;;;;;;5012166;28;20052;-75
2022/07/12 03:34:59;;;;;;;2.38;1.40;;;13.60;99.90;;;;;;5011834;28;20037;-74
2022/07/12 03:37:25;;;;;;;2.22;0.95;;;13.50;99.90;;;;;;5011798;28;20498;-75
2022/07/12 03:39:51;;;;;;;2.58;1.13;;;13.50;99.90;;;;;;5011862;28;20045;-75
2022/07/12 03:42:17;;;;;;;1.13;0.80;;;13.50;99.90;;;;;;4995400;28;20413;-75
2022/07/12 03:44:43;;;;;;;2.50;1.23;;;13.40;99.90;;;;;;5012403;28;20053;-75
2022/07/12 03:47:08;;;;;;;1.17;0.93;;;13.40;99.90;;;;;;5011840;28;20042;-74
2022/07/12 03:49:34;;;;;;;1.40;1.00;;;13.40;99.90;;;;;;5011712;28;20042;-74
2022/07/12 03:52:00;;;;;;;1.10;0.95;;;13.40;99.90;;;;;;5011702;28;20046;-75
2022/07/12 03:54:25;;;;;;;0.88;0.70;;;13.40;99.90;;;;;;4995606;28;20509;-75
2022/07/12 03:59:35;;;;;;;2.03;0.95;;;13.40;99.90;;;;;;5011874;28;20045;-74
2022/07/12 04:02:04;;;;;;;2.92;0.90;;;13.50;99.90;;;;;;4995454;28;20200;-75
2022/07/12 04:04:29;;;;;;;1.85;1.10;;;13.40;99.90;;;;;;5015585;28;20073;-75
2022/07/12 04:06:55;;;;;;;1.42;0.90;;;13.50;99.90;;;;;;5015488;28;20453;-74
2022/07/12 04:09:21;;;;;;;2.35;0.90;;;13.50;99.90;;;;;;5015435;28;20066;-74
2022/07/12 04:11:47;;;;;;;1.42;0.93;;;13.60;99.90;;;;;;4998984;28;20042;-74
2022/07/12 04:14:12;;;;;;;1.98;1.10;;;13.60;99.90;;;;;;5015185;28;20064;-74
2022/07/12 04:16:39;;;;;;;1.77;0.88;;;13.60;99.90;;;;;;4998943;28;20132;-74
2022/07/12 04:19:06;;;;;;;1.70;1.10;;;13.60;99.90;;;;;;4999271;28;20124;-73
2022/07/12 04:21:32;;;;;;;2.25;1.20;;;13.70;99.90;;;;;;4999044;28;20034;-75
2022/07/12 04:23:58;;;;;;;1.48;1.08;;;13.90;99.90;;;;;;4998870;28;20132;-76
2022/07/12 04:26:23;;;;;;;4.90;2.25;;;13.80;99.90;;;;;;4998816;28;20569;-75
2022/07/12 04:28:49;;;;;;;1.13;0.80;;;13.80;99.90;;;;;;4998696;28;20038;-75
2022/07/12 04:31:15;;;;;;;3.90;1.40;;;13.80;99.90;;;;;;5015266;28;20433;-75
2022/07/12 04:33:40;;;;;;;2.05;1.08;;;13.80;99.90;;;;;;5014993;28;20038;-75
2022/07/12 04:36:06;;;;;;;1.50;0.80;;;13.90;99.90;;;;;;5014949;28;20129;-75
2022/07/12 04:38:32;;;;;;;1.63;0.80;;;13.90;99.90;;;;;;5014833;28;20041;-75
2022/07/12 04:40:57;;;;;;;1.90;1.13;;;13.90;99.90;;;;;;5014748;28;20486;-75
2022/07/12 04:43:24;;;;;;;1.73;1.02;;;14.00;99.90;;;;;;5014736;28;20073;-74
2022/07/12 04:45:53;;;;;;;3.40;1.75;;;14.00;99.90;;;;;;5014995;28;20486;-75
2022/07/12 04:48:19;;;;;;;1.67;1.33;;;14.10;99.90;;;;;;5015006;28;20490;-75
2022/07/12 04:50:44;;;;;;;2.42;1.40;;;14.20;99.90;;;;;;5015018;28;20049;-74
2022/07/12 04:53:10;;;;;;;1.83;1.08;;;14.20;99.90;;;;;;5014581;28;20041;-75
2022/07/12 04:55:36;;;;;;;2.03;1.17;;;14.30;99.90;;;;;;5014572;28;20042;-75
2022/07/12 04:58:02;;;;;;;2.65;1.42;;;14.30;99.90;;;;;;5014805;28;20396;-75
2022/07/12 05:00:28;;;;;;;2.97;1.35;;;14.30;99.90;;;;;;5014499;28;20125;-74
2022/07/12 05:02:53;;;;;;;2.03;1.48;;;14.40;99.90;;;;;;5014350;28;20520;-73
2022/07/12 05:05:19;;;;;;;3.53;2.08;;;14.50;99.90;;;;;;4998035;28;20069;-75
2022/07/12 05:07:45;;;;;;;3.15;1.88;;;14.60;99.90;;;;;;5014285;28;20034;-74
2022/07/12 05:10:11;;;;;;;2.10;1.27;;;14.70;99.90;;;;;;5016015;28;20030;-74
2022/07/12 05:12:37;;;;;;;3.63;1.63;;;14.80;99.90;;;;;;5001230;28;20053;-74
2022/07/12 05:15:04;;;;;;;2.88;1.45;;;14.80;99.90;;;;;;5016473;28;20053;-73
2022/07/12 05:17:30;;;;;;;2.42;1.60;;;14.90;99.90;;;;;;5017693;28;20037;-73
2022/07/12 05:19:55;;;;;;;4.30;1.48;;;15.10;99.90;;;;;;4984998;28;20103;-74
2022/07/12 05:22:21;;;;;;;4.07;1.90;;;15.00;99.90;;;;;;5001235;28;20048;-73
2022/07/12 05:24:47;;;;;;;2.53;1.52;;;15.10;99.90;;;;;;5017582;28;20068;-75
2022/07/12 05:27:12;;;;;;;2.75;1.85;;;15.00;99.90;;;;;;5017329;28;20033;-73
2022/07/12 05:29:38;;;;;;;2.67;1.55;;;15.00;99.90;;;;;;4985647;28;20469;-73
2022/07/12 05:32:05;;;;;;;1.42;1.02;;;15.10;99.90;;;;;;5017578;28;20053;-77
2022/07/12 05:34:31;;;;;;;2.55;1.42;;;15.00;99.90;;;;;;5001053;28;20041;-75
2022/07/12 05:36:56;;;;;;;1.75;1.27;;;14.80;99.90;;;;;;5017243;28;20508;-74
2022/07/12 05:39:22;;;;;;;2.75;1.50;;;15.00;99.90;;;;;;5000844;28;20044;-75
2022/07/12 05:41:48;;;;;;;2.75;1.83;;;15.00;99.90;;;;;;5017109;28;20053;-75
2022/07/12 05:44:16;;;;;;;2.65;1.45;;;15.20;99.90;;;;;;5017136;28;20045;-75
2022/07/12 05:46:42;;;;;;;1.73;1.20;;;15.30;99.90;;;;;;4985646;28;20049;-74
2022/07/12 05:49:08;;;;;;;2.88;1.25;;;15.40;99.90;;;;;;5000790;28;20068;-75
2022/07/12 05:54:18;;;;;;;3.90;2.03;;;;;;;;;;5003587;28;20053;-77
2022/07/12 05:56:44;;;;;;;2.92;1.85;;;;;;;;;;5017131;28;20045;-76
2022/07/12 05:59:10;;;;;;;4.50;2.58;;;;;;;;;;5017464;28;20041;-74
2022/07/12 06:01:36;;;;;;;2.83;1.98;;;;;;;;;;5017297;28;20045;-75
2022/07/12 06:04:02;;;;;;;2.35;1.40;;;;;;;;;;5017028;28;20037;-75
2022/07/12 06:06:28;;;;;;;4.00;1.77;;;;;;;;;;5000532;28;20037;-75
2022/07/12 06:08:54;;;;;;;3.30;2.00;;;;;;;;;;5000309;28;20124;-75
2022/07/12 06:11:20;;;;;;;2.58;1.75;;;;;;;;;;5016392;28;20041;-75
2022/07/12 06:13:47;;;;;;;4.10;2.00;;;;;;;;;;5016146;28;20390;-75
2022/07/12 06:16:13;;;;;;;3.17;2.10;;;;;;;;;;5016477;28;20132;-75
2022/07/12 06:18:39;;;;;;;3.55;2.15;;;;;;;;;;5016939;28;20041;-78
2022/07/12 06:21:05;;;;;;;5.15;2.60;;;17.00;99.90;;;;;;4983728;28;20057;-79
2022/07/12 06:23:31;;;;;;;4.53;2.20;;;16.80;99.90;;;;;;5016069;28;20044;-78
2022/07/12 06:25:56;;;;;;;3.50;2.40;;;17.00;99.90;;;;;;4983326;28;20039;-79
2022/07/12 06:28:22;;;;;;;3.50;1.98;;;;;;;;;;4999731;28;20111;-79
2022/07/12 06:30:48;;;;;;;3.33;2.30;;;;;;;;;;4999717;28;20132;-78
2022/07/12 06:33:14;;;;;;;4.43;2.35;;;;;;;;;;5016095;28;20489;-78
2022/07/12 06:35:40;;;;;;;3.97;1.80;;;;;;;;;;4983740;28;20397;-75
2022/07/12 06:38:07;;;;;;;3.55;1.90;;;;;;;;;;4999927;28;20127;-79
2022/07/12 06:40:33;;;;;;;3.55;2.20;;;;;;;;;;4999772;28;20477;-79
2022/07/12 06:42:59;;;;;;;3.08;1.95;;;;;;;;;;4999411;28;20063;-74
2022/07/12 06:45:25;;;;;;;4.78;1.90;;;;;;;;;;4999569;28;20038;-75
2022/07/12 06:47:52;;;;;;;3.25;1.75;;;;;;;;;;5015764;28;20045;-75
2022/07/12 06:50:18;;;;;;;3.45;1.80;;;;;;;;;;5015730;28;20037;-75
2022/07/12 06:52:44;;;;;;;4.78;1.92;;;;;;;;;;5015674;28;20099;-75
2022/07/12 06:55:10;;;;;;;2.95;1.83;;;;;;;;;;5015636;28;20041;-75
2022/07/12 06:57:37;;;;;;;3.15;1.90;;;;;;;;;;4999735;28;20088;-74
2022/07/12 07:00:04;;;;;;;3.65;2.33;;;;;;;;;;5015806;28;20052;-75
2022/07/12 07:02:30;;;;;;;3.75;2.15;;;;;;;;;;5015555;28;20463;-75
2022/07/12 07:04:56;;;;;;;3.42;1.83;;;;;;;;;;4999978;28;20490;-74
2022/07/12 07:07:23;;;;;;;3.17;1.70;;;;;;;;;;5015520;28;20044;-74
2022/07/12 07:09:49;;;;;;;2.90;1.85;;;;;;;;;;4999369;28;20448;-75
2022/07/12 07:12:15;;;;;;;4.07;2.03;;;;;;;;;;4999157;28;20136;-72
2022/07/12 07:14:41;;;;;;;1.90;1.30;;;;;;;;;;4998970;28;20060;-74
2022/07/12 07:17:08;;;;;;;3.55;2.08;;;;;;;;;;4999016;28;20037;-74
2022/07/12 07:19:34;;;;;;;2.67;1.85;;;;;;;;;;5015336;28;20068;-74
2022/07/12 07:22:00;;;;;;;2.67;1.77;;;;;;;;;;4998890;28;20041;-76
2022/07/12 07:24:26;;;;;;;2.03;1.40;;;;;;;;;;5015267;28;20041;-74
2022/07/12 07:26:52;;;;;;;2.63;1.50;;;;;;;;;;4998823;28;20045;-74
2022/07/12 07:32:02;;;;;;;3.38;1.65;;;18.60;99.90;;;;;;5015079;28;20072;-78
2022/07/12 07:34:27;;;;;;;4.07;1.77;;;18.70;99.90;;;;;;5015208;28;20495;-73
2022/07/12 07:36:53;;;;;;;3.40;1.77;;;18.70;99.90;;;;;;5014550;28;20670;-74
2022/07/12 07:39:19;;;;;;;2.67;1.50;;;18.70;99.90;;;;;;5015052;28;20103;-74
2022/07/12 07:41:45;;;;;;;2.88;1.55;;;18.70;99.90;;;;;;5015015;28;20408;-74
2022/07/12 07:44:11;;;;;;;2.38;1.60;;;;;;;;;;5015005;28;20033;-74
2022/07/12 07:46:37;;;;;;;3.10;1.55;;;;;;;;;;5015042;28;20039;-74
2022/07/12 07:49:03;;;;;;;2.42;1.40;;;;;;;;;;4998798;28;20087;-75
2022/07/12 07:51:29;;;;;;;2.38;1.75;;;;;;;;;;5014971;28;20572;-74
2022/07/12 07:53:55;;;;;;;2.13;1.55;;;;;;;;;;4998713;28;20049;-76
2022/07/12 07:56:21;;;;;;;2.20;1.42;;;;;;;;;;4998523;28;20037;-73
2022/07/12 07:58:47;;;;;;;2.90;1.55;;;;;;;;;;5014895;28;20128;-74
2022/07/12 08:01:13;;;;;;;2.25;1.20;;;20.10;99.90;;;;;;4998470;28;20037;-74
2022/07/12 08:03:39;;;;;;;4.50;1.60;;;20.20;99.90;;;;;;4982607;28;20029;-74
2022/07/12 08:06:05;;;;;;;3.55;1.88;;;20.40;99.90;;;;;;5015078;28;20135;-74
2022/07/12 08:08:31;;;;;;;2.95;1.63;;;20.50;99.90;;;;;;4998571;28;20038;-74
2022/07/12 08:10:57;;;;;;;3.03;1.85;;;20.50;99.90;;;;;;5014918;28;20049;-74
2022/07/12 08:13:23;;;;;;;3.15;1.73;;;20.60;99.90;;;;;;5014815;28;20045;-74
2022/07/12 08:15:49;;;;;;;3.50;2.00;;;20.70;99.90;;;;;;5015041;28;20515;-73
2022/07/12 08:18:15;;;;;;;2.47;1.70;;;20.90;99.90;;;;;;5014631;28;20120;-73
2022/07/12 08:20:41;;;;;;;2.30;1.25;;;;;;;;;;5014701;28;20125;-74
2022/07/12 08:23:08;;;;;;;1.90;1.10;;;;;;;;;;5014615;28;20103;-74
2022/07/12 08:25:34;;;;;;;2.67;1.83;;;21.30;99.90;;;;;;5014666;28;20049;-74
2022/07/12 08:27:59;;;;;;;4.03;1.98;;;21.20;99.90;;;;;;4998348;28;20095;-75
2022/07/12 08:30:26;;;;;;;2.92;1.75;;;21.50;99.90;;;;;;5014480;28;20488;-74
2022/07/12 08:32:52;;;;;;;1.98;1.40;;;21.60;99.90;;;;;;5014847;28;20088;-74
2022/07/12 08:35:18;;;;;;;3.55;1.55;;;21.80;99.90;;;;;;4998275;28;20045;-74
2022/07/12 08:37:44;;;;;;;2.95;1.67;;;21.80;99.90;;;;;;5014518;28;20083;-74
2022/07/12 08:40:10;;;;;;;4.22;1.38;;;21.90;99.90;;;;;;5014587;28;20077;-73
2022/07/12 08:42:40;;;;;;;1.77;1.00;;;21.90;99.90;;;;;;5014394;28;20107;-74
2022/07/12 08:45:06;;;;;;;2.43;1.20;;;21.90;99.90;;;;;;4998294;28;20038;-74
2022/07/12 08:47:31;;;;;;;1.27;1.08;;;21.90;99.90;;;;;;5014398;28;20042;-74
2022/07/12 08:50:10;;;;;;;2.42;1.30;;;21.90;99.90;;;;;;4999745;28;20416;-74
2022/07/12 08:52:40;;;;;;;2.17;1.58;;;21.90;99.90;;;;;;5018033;28;20053;-74
2022/07/12 08:55:18;;;;;;;2.45;1.30;;;21.90;99.90;;;;;;5017748;28;20045;-74
2022/07/12 08:57:44;;;;;;;2.20;1.15;;;22.10;99.90;;;;;;5001397;28;20081;-74
2022/07/12 09:00:10;;;;;;;2.08;1.17;;;22.10;99.90;;;;;;5017779;28;20088;-74
2022/07/12 09:02:47;;;;;;;2.08;1.15;;;22.10;99.90;;;;;;5017775;28;20107;-74
2022/07/12 09:05:13;;;;;;;1.35;1.00;;;22.20;99.90;;;;;;5017668;28;20041;-74
2022/07/12 09:07:39;;;;;;;1.55;1.20;;;22.20;99.90;;;;;;5017598;28;20040;-74
2022/07/12 09:10:07;;;;;;;1.52;1.20;;;22.20;99.90;;;;;;5017714;28;20489;-74
2022/07/12 09:12:34;;;;;;;1.15;0.90;;;22.20;99.90;;;;;;5017347;28;20041;-74
2022/07/12 09:15:23;;;;;;;1.75;1.13;;;22.20;99.90;;;;;;5017435;28;20056;-74
2022/07/12 09:17:55;;;;;;;1.95;1.02;;;22.30;99.90;;;;;;5017729;28;20045;-74
2022/07/12 09:20:21;;;;;;;1.25;0.77;;;22.30;99.90;;;;;;5017357;28;20045;-74
2022/07/12 09:22:55;;;;;;;1.70;0.90;;;22.40;99.90;;;;;;5000945;28;20094;-74
2022/07/12 09:25:21;;;;;;;0.80;0.68;;;22.40;99.90;;;;;;5017280;28;20048;-74
2022/07/12 09:27:52;;;;;;;1.17;0.80;;;22.60;99.90;;;;;;5017239;28;20041;-76
2022/07/12 09:30:18;;;;;;;1.13;0.70;;;;;;;;;;5001426;28;20063;-80
2022/07/12 09:38:21;;;;;;;0.75;0.65;;;;;;;;;;5003194;28;20455;-82
2022/07/12 09:40:47;;;;;;;1.17;0.80;;;;;;;;;;5017281;28;20487;-74
2022/07/12 09:43:14;;;;;;;1.48;1.08;;;;;;;;;;5000947;28;20042;-74
2022/07/12 09:45:41;;;;;;;0.88;0.70;;;;;;;;;;5016953;28;20146;-74
2022/07/12 09:48:09;;;;;;;1.10;0.80;;;23.40;99.90;;;;;;5000613;28;20045;-74
2022/07/12 09:50:35;;;;;;;1.88;0.90;;;23.50;99.90;;;;;;5001016;28;20489;-74
2022/07/12 09:53:03;;;;;;;1.23;0.75;;;23.50;99.90;;;;;;5016741;28;20042;-74
2022/07/12 09:55:32;;;;;;;0.90;0.80;;;23.40;99.90;;;;;;5016986;28;20049;-74
2022/07/12 09:58:02;;;;;;;1.50;0.80;;;23.40;99.90;;;;;;5016873;28;20493;-74
2022/07/12 10:00:28;;;;;;;1.23;0.82;;;23.40;99.90;;;;;;5016502;28;20045;-74
2022/07/12 10:02:55;;;;;;;0.93;0.77;;;;;;;;;;5016523;28;20050;-74
2022/07/12 10:05:25;;;;;;;0.93;0.80;;;;;;;;;;5016612;28;20037;-74
2022/07/12 10:07:51;;;;;;;0.75;0.70;;;23.50;99.90;;;;;;5016494;28;20061;-74
2022/07/12 10:10:17;;;;;;;1.17;0.82;;;23.80;99.90;;;;;;5016753;28;20080;-74
2022/07/12 10:12:43;;;;;;;1.92;0.88;;;;;;;;;;5016380;28;20084;-74
2022/07/12 10:15:20;;;;;;;1.10;0.90;;;23.70;99.90;;;;;;5016404;28;20098;-74
2022/07/12 10:17:55;;;;;;;1.27;0.75;;;23.70;99.90;;;;;;5016310;28;20038;-74
2022/07/12 10:20:29;;;;;;;1.02;0.93;;;23.70;99.90;;;;;;5000276;28;20118;-74
2022/07/12 10:22:56;;;;;;;0.80;0.63;;;23.70;99.90;;;;;;4999921;28;20045;-74
2022/07/12 10:25:32;;;;;;;3.53;0.80;;;23.80;99.90;;;;;;4999923;28;20076;-74
2022/07/12 10:28:00;;;;;;;0.70;0.70;;;23.90;99.90;;;;;;5016559;28;20045;-74
2022/07/12 10:30:27;;;;;;;1.40;0.98;;;24.00;99.90;;;;;;4984383;28;20041;-74
2022/07/12 10:32:57;;;;;;;1.17;0.90;;;24.00;99.90;;;;;;5016032;28;20042;-75
2022/07/12 10:35:25;;;;;;;0.95;0.77;;;24.00;99.90;;;;;;5016028;28;20087;-75
2022/07/12 10:38:13;;;;;;;0.70;0.70;;;24.00;99.90;;;;;;5015966;28;20044;-75
2022/07/12 10:40:40;;;;;;;1.48;0.90;;;23.90;99.90;;;;;;5016166;28;20124;-75
2022/07/12 10:43:07;;;;;;;0.68;0.60;;;23.80;99.90;;;;;;5015755;28;20041;-75
2022/07/12 10:45:41;;;;;;;0.73;0.60;;;23.80;99.90;;;;;;5015851;28;20045;-75
2022/07/12 10:48:20;;;;;;;0.80;0.60;;;23.90;99.90;;;;;;5016113;28;20030;-72
2022/07/12 10:50:48;;;;;;;0.70;0.70;;;24.00;99.90;;;;;;5015829;28;20041;-72
2022/07/12 10:53:20;;;;;;;0.80;0.80;;;24.10;99.90;;;;;;5015692;28;20049;-73
2022/07/12 10:56:08;;;;;;;0.93;0.60;;;24.20;99.90;;;;;;4999689;28;20534;-74
2022/07/12 10:58:38;;;;;;;1.35;0.93;;;24.30;99.90;;;;;;5015873;28;20045;-74
2022/07/12 11:01:06;;;;;;;0.93;0.65;;;24.50;99.90;;;;;;5015574;28;20057;-74
2022/07/12 11:03:46;;;;;;;1.90;0.70;;;24.50;99.90;;;;;;4983255;28;20111;-74
2022/07/12 11:06:24;;;;;;;0.55;0.55;;;24.60;99.90;;;;;;5015760;28;20048;-74
2022/07/12 11:08:57;;;;;;;1.67;0.60;;;24.70;99.90;;;;;;5015673;28;20033;-74
2022/07/12 11:11:25;;;;;;;0.60;0.60;;;24.70;99.90;;;;;;5015372;28;20516;-74
2022/07/12 11:13:51;;;;;;;0.57;0.57;;;24.70;99.90;;;;;;5014994;28;20521;-73
2022/07/12 11:16:17;;;;;;;0.52;0.50;;;24.80;99.90;;;;;;5015426;28;20104;-74
2022/07/12 11:18:44;;;;;;;1.40;0.70;;;24.90;99.90;;;;;;5015303;28;20570;-74
2022/07/12 11:21:09;;;;;;;1.23;0.95;;;25.00;99.90;;;;;;4998975;28;20124;-74
2022/07/12 11:23:35;;;;;;;0.88;0.85;;;25.10;99.90;;;;;;4998908;28;20040;-73
2022/07/12 11:26:03;;;;;;;1.23;0.77;;;25.10;99.90;;;;;;5015656;28;20073;-74
2022/07/12 11:28:30;;;;;;;0.60;0.60;;;25.20;99.90;;;;;;5015456;28;20481;-74
2022/07/12 11:31:05;;;;;;;0.75;0.68;;;25.30;99.90;;;;;;4999387;28;20045;-75
2022/07/12 11:33:39;;;;;;;1.42;0.77;;;25.30;99.90;;;;;;5015200;28;20137;-74
2022/07/12 11:36:07;;;;;;;0.70;0.70;;;25.40;99.90;;;;;;5015094;28;20041;-74
2022/07/12 11:38:34;;;;;;;1.80;0.75;;;25.30;99.90;;;;;;4998795;28;20076;-74
2022/07/12 11:41:03;;;;;;;1.88;0.90;;;25.40;99.90;;;;;;5015321;28;20046;-74
2022/07/12 11:43:30;;;;;;;0.70;0.70;;;25.40;99.90;;;;;;5015129;28;20048;-74
2022/07/12 11:45:56;;;;;;;1.02;0.70;;;25.50;99.90;;;;;;4998925;28;20445;-74
2022/07/12 11:48:23;;;;;;;0.80;0.80;;;25.30;99.90;;;;;;5015061;28;20075;-74
2022/07/12 11:50:54;;;;;;;1.00;0.70;;;25.40;99.90;;;;;;4998735;28;20077;-74
2022/07/12 11:53:19;;;;;;;0.75;0.63;;;25.30;99.90;;;;;;5014976;28;20135;-83
2022/07/12 11:55:47;;;;;;;0.70;0.70;;;25.30;99.90;;;;;;5015250;28;20087;-74
2022/07/12 11:58:17;;;;;;;0.82;0.80;;;25.20;99.90;;;;;;5015167;28;20052;-74
2022/07/12 12:00:44;;;;;;;1.30;0.60;;;25.20;99.90;;;;;;4998661;28;20049;-74
2022/07/12 12:03:10;;;;;;;0.68;0.68;;;25.20;99.90;;;;;;5014805;28;20046;-74
2022/07/12 12:05:37;;;;;;;0.63;0.63;;;25.20;99.90;;;;;;5014882;28;20057;-74
2022/07/12 12:08:04;;;;;;;0.80;0.70;;;25.30;99.90;;;;;;5015108;28;20045;-73
2022/07/12 12:10:30;;;;;;;1.15;0.80;;;25.30;99.90;;;;;;4998791;28;20049;-74
2022/07/12 12:12:57;;;;;;;0.45;0.40;;;25.40;99.90;;;;;;5014922;28;20398;-80
2022/07/12 12:15:25;;;;;;;0.77;0.77;;;25.40;99.90;;;;;;5014752;28;20052;-76
2022/07/12 12:17:57;;;;;;;1.17;0.90;;;25.40;99.90;;;;;;5014771;28;20170;-76
2022/07/12 12:20:37;;;;;;;0.65;0.65;;;25.40;99.90;;;;;;4998392;28;20414;-77
2022/07/12 12:23:16;;;;;;;0.80;0.80;;;25.50;99.90;;;;;;4998636;28;20049;-79
2022/07/12 12:25:42;;;;;;;0.60;0.60;;;25.60;99.90;;;;;;5003572;28;20033;-83
2022/07/12 12:28:08;;;;;;;1.80;0.95;;;25.70;99.90;;;;;;4985948;28;20037;-80
2022/07/12 12:30:35;;;;;;;1.00;0.90;;;25.70;99.90;;;;;;5018551;28;20045;-76
2022/07/12 12:33:07;;;;;;;0.80;0.80;;;25.80;99.90;;;;;;5018290;28;20440;-76
2022/07/12 12:35:35;;;;;;;1.08;0.70;;;25.80;99.90;;;;;;5002154;28;20565;-76
2022/07/12 12:38:12;;;;;;;0.55;0.55;;;25.90;99.90;;;;;;5018462;28;20045;-85
2022/07/12 12:40:38;;;;;;;1.30;1.00;;;25.80;99.90;;;;;;5018144;28;20067;-81
2022/07/12 12:43:13;;;;;;;1.77;0.80;;;25.80;99.90;;;;;;5001721;28;20048;-81
2022/07/12 12:45:53;;;;;;;3.08;0.60;;;25.70;99.90;;;;;;5018476;28;20048;-82
2022/07/12 12:48:25;;;;;;;0.60;0.60;;;25.70;99.90;;;;;;5002265;28;20041;-83
2022/07/12 12:51:06;;;;;;;0.70;0.70;;;25.80;99.90;;;;;;5001901;28;20068;-82
2022/07/12 12:53:32;;;;;;;0.55;0.55;;;25.90;99.90;;;;;;5001822;28;20038;-82
2022/07/12 12:55:58;;;;;;;0.60;0.60;;;26.00;99.90;;;;;;5001912;28;20485;-81
2022/07/12 12:58:24;;;;;;;0.50;0.50;;;26.10;99.90;;;;;;5001872;28;20048;-81
2022/07/12 13:00:53;;;;;;;0.60;0.50;;;26.20;99.90;;;;;;5001850;28;20432;-82
2022/07/12 13:03:20;;;;;;;0.75;0.40;;;26.20;99.90;;;;;;5001463;28;20038;-82
2022/07/12 13:05:47;;;;;;;1.77;0.47;;;26.30;99.90;;;;;;5001591;28;20592;-82
2022/07/12 13:08:15;;;;;;;0.40;0.40;;;26.40;99.90;;;;;;4985248;28;20140;-81
2022/07/12 13:10:43;;;;;;;0.50;0.50;;;26.50;99.90;;;;;;5017978;28;20041;-81
2022/07/12 13:13:10;;;;;;;0.40;0.40;;;26.60;99.90;;;;;;5000957;28;20053;-79
2022/07/12 13:15:37;;;;;;;0.55;0.50;;;26.70;99.90;;;;;;4986118;28;20045;-82
2022/07/12 13:18:04;;;;;;;0.50;0.45;;;26.70;99.90;;;;;;5001312;28;20048;-85
2022/07/12 13:20:30;;;;;;;1.75;0.70;;;26.80;99.90;;;;;;5001711;28;20474;-86